sensor_id;sensor_type;location;lat;lon;timestamp;temperature;humidity
70336;SHT31;57756;47.408;18.940;2023-03-01T00:00:39;4.32;77.93
70336;SHT31;57756;47.408;18.940;2023-03-01T00:03:05;4.33;77.49
70336;SHT31;57756;47.408;18.940;2023-03-01T00:05:31;4.34;77.49
70336;SHT31;57756;47.408;18.940;2023-03-01T00:07:57;4.33;77.88
70336;SHT31;57756;47.408;18.940;2023-03-01T00:10:22;4.32;77.76
70336;SHT31;57756;47.408;18.940;2023-03-01T00:12:48;4.32;78.02
70336;SHT31;57756;47.408;18.940;2023-03-01T00:15:13;4.26;78.12
70336;SHT31;57756;47.408;18.940;2023-03-01T00:17:39;4.28;77.74
70336;SHT31;57756;47.408;18.940;2023-03-01T00:20:05;4.32;77.65
70336;SHT31;57756;47.408;18.940;2023-03-01T00:22:35;4.33;78.25
70336;SHT31;57756;47.408;18.940;2023-03-01T00:25:01;4.32;77.84
70336;SHT31;57756;47.408;18.940;2023-03-01T00:27:26;4.32;77.24
70336;SHT31;57756;47.408;18.940;2023-03-01T00:29:52;4.34;77.05
70336;SHT31;57756;47.408;18.940;2023-03-01T00:32:17;4.37;77.13
70336;SHT31;57756;47.408;18.940;2023-03-01T00:34:43;4.36;77.45
70336;SHT31;57756;47.408;18.940;2023-03-01T00:37:22;4.37;78.18
70336;SHT31;57756;47.408;18.940;2023-03-01T00:39:48;4.37;77.27
70336;SHT31;57756;47.408;18.940;2023-03-01T00:42:14;4.41;77.03
70336;SHT31;57756;47.408;18.940;2023-03-01T00:44:40;4.41;76.97
70336;SHT31;57756;47.408;18.940;2023-03-01T00:47:06;4.40;77.19
70336;SHT31;57756;47.408;18.940;2023-03-01T00:49:31;4.33;77.47
70336;SHT31;57756;47.408;18.940;2023-03-01T00:51:56;4.36;77.10
70336;SHT31;57756;47.408;18.940;2023-03-01T00:54:22;4.32;77.39
70336;SHT31;57756;47.408;18.940;2023-03-01T00:56:48;4.33;77.60
70336;SHT31;57756;47.408;18.940;2023-03-01T00:59:13;4.34;76.94
70336;SHT31;57756;47.408;18.940;2023-03-01T01:01:39;4.36;77.39
70336;SHT31;57756;47.408;18.940;2023-03-01T01:04:11;4.33;77.96
70336;SHT31;57756;47.408;18.940;2023-03-01T01:06:39;4.30;76.88
70336;SHT31;57756;47.408;18.940;2023-03-01T01:09:07;4.29;76.86
70336;SHT31;57756;47.408;18.940;2023-03-01T01:11:33;4.30;76.89
70336;SHT31;57756;47.408;18.940;2023-03-01T01:14:00;4.40;76.01
70336;SHT31;57756;47.408;18.940;2023-03-01T01:16:27;4.36;76.42
70336;SHT31;57756;47.408;18.940;2023-03-01T01:18:53;4.37;76.23
70336;SHT31;57756;47.408;18.940;2023-03-01T01:21:21;4.39;76.55
70336;SHT31;57756;47.408;18.940;2023-03-01T01:23:47;4.36;76.50
70336;SHT31;57756;47.408;18.940;2023-03-01T01:26:19;4.37;76.78
70336;SHT31;57756;47.408;18.940;2023-03-01T01:28:45;4.40;76.27
70336;SHT31;57756;47.408;18.940;2023-03-01T01:31:11;4.46;76.02
70336;SHT31;57756;47.408;18.940;2023-03-01T01:33:36;4.40;76.55
70336;SHT31;57756;47.408;18.940;2023-03-01T01:36:03;4.39;76.29
70336;SHT31;57756;47.408;18.940;2023-03-01T01:38:29;4.40;76.68
70336;SHT31;57756;47.408;18.940;2023-03-01T01:40:54;4.39;76.33
70336;SHT31;57756;47.408;18.940;2023-03-01T01:43:36;4.39;76.18
70336;SHT31;57756;47.408;18.940;2023-03-01T01:46:05;4.46;76.22
70336;SHT31;57756;47.408;18.940;2023-03-01T01:48:40;4.43;75.84
70336;SHT31;57756;47.408;18.940;2023-03-01T01:51:13;4.41;76.57
70336;SHT31;57756;47.408;18.940;2023-03-01T01:53:41;4.37;76.23
70336;SHT31;57756;47.408;18.940;2023-03-01T01:56:08;4.43;75.96
70336;SHT31;57756;47.408;18.940;2023-03-01T01:58:37;4.43;76.15
70336;SHT31;57756;47.408;18.940;2023-03-01T02:01:04;4.40;76.25
70336;SHT31;57756;47.408;18.940;2023-03-01T02:03:31;4.39;77.08
70336;SHT31;57756;47.408;18.940;2023-03-01T02:06:28;4.43;76.76
70336;SHT31;57756;47.408;18.940;2023-03-01T02:08:57;4.40;77.27
70336;SHT31;57756;47.408;18.940;2023-03-01T02:11:25;4.43;77.51
70336;SHT31;57756;47.408;18.940;2023-03-01T02:13:51;4.40;77.33
70336;SHT31;57756;47.408;18.940;2023-03-01T02:16:17;4.40;77.19
70336;SHT31;57756;47.408;18.940;2023-03-01T02:18:43;4.44;77.33
70336;SHT31;57756;47.408;18.940;2023-03-01T02:24:06;4.39;78.75
70336;SHT31;57756;47.408;18.940;2023-03-01T02:26:37;4.37;78.57
70336;SHT31;57756;47.408;18.940;2023-03-01T02:29:06;4.37;78.09
70336;SHT31;57756;47.408;18.940;2023-03-01T02:31:32;4.40;78.24
70336;SHT31;57756;47.408;18.940;2023-03-01T02:34:15;4.37;78.55
70336;SHT31;57756;47.408;18.940;2023-03-01T02:36:51;4.32;78.64
70336;SHT31;57756;47.408;18.940;2023-03-01T02:39:22;4.28;79.43
70336;SHT31;57756;47.408;18.940;2023-03-01T02:41:51;4.26;79.86
70336;SHT31;57756;47.408;18.940;2023-03-01T02:44:18;4.26;79.97
70336;SHT31;57756;47.408;18.940;2023-03-01T02:46:49;4.23;80.82
70336;SHT31;57756;47.408;18.940;2023-03-01T02:49:20;4.20;80.21
70336;SHT31;57756;47.408;18.940;2023-03-01T02:57:17;4.17;81.03
70336;SHT31;57756;47.408;18.940;2023-03-01T02:59:43;4.20;80.49
70336;SHT31;57756;47.408;18.940;2023-03-01T03:02:23;4.17;81.24
70336;SHT31;57756;47.408;18.940;2023-03-01T03:07:34;4.10;82.08
70336;SHT31;57756;47.408;18.940;2023-03-01T03:10:02;4.13;81.42
70336;SHT31;57756;47.408;18.940;2023-03-01T03:12:28;4.09;81.39
70336;SHT31;57756;47.408;18.940;2023-03-01T03:14:54;4.12;81.21
70336;SHT31;57756;47.408;18.940;2023-03-01T03:17:19;4.09;81.27
70336;SHT31;57756;47.408;18.940;2023-03-01T03:19:45;4.09;81.90
70336;SHT31;57756;47.408;18.940;2023-03-01T03:22:11;4.10;81.19
70336;SHT31;57756;47.408;18.940;2023-03-01T03:24:37;4.07;81.54
70336;SHT31;57756;47.408;18.940;2023-03-01T03:27:06;4.09;81.62
70336;SHT31;57756;47.408;18.940;2023-03-01T03:29:32;4.21;80.78
70336;SHT31;57756;47.408;18.940;2023-03-01T03:31:58;4.17;80.90
70336;SHT31;57756;47.408;18.940;2023-03-01T03:34:24;4.13;81.43
70336;SHT31;57756;47.408;18.940;2023-03-01T03:36:56;4.10;81.41
70336;SHT31;57756;47.408;18.940;2023-03-01T03:39:27;4.12;81.61
70336;SHT31;57756;47.408;18.940;2023-03-01T03:41:54;4.12;81.39
70336;SHT31;57756;47.408;18.940;2023-03-01T03:44:20;4.13;81.07
70336;SHT31;57756;47.408;18.940;2023-03-01T03:46:46;4.10;81.31
70336;SHT31;57756;47.408;18.940;2023-03-01T03:49:11;4.09;81.49
70336;SHT31;57756;47.408;18.940;2023-03-01T03:51:37;4.12;81.96
70336;SHT31;57756;47.408;18.940;2023-03-01T03:54:02;4.10;81.33
70336;SHT31;57756;47.408;18.940;2023-03-01T03:56:28;4.10;81.59
70336;SHT31;57756;47.408;18.940;2023-03-01T03:58:54;4.10;80.77
70336;SHT31;57756;47.408;18.940;2023-03-01T04:01:19;4.13;80.53
70336;SHT31;57756;47.408;18.940;2023-03-01T04:03:44;4.14;80.79
70336;SHT31;57756;47.408;18.940;2023-03-01T04:06:14;4.13;80.62
70336;SHT31;57756;47.408;18.940;2023-03-01T04:08:40;4.10;80.63
70336;SHT31;57756;47.408;18.940;2023-03-01T04:11:06;4.06;80.64
70336;SHT31;57756;47.408;18.940;2023-03-01T04:13:51;4.13;80.38
70336;SHT31;57756;47.408;18.940;2023-03-01T04:16:16;4.13;80.38
70336;SHT31;57756;47.408;18.940;2023-03-01T04:18:43;4.12;80.50
70336;SHT31;57756;47.408;18.940;2023-03-01T04:21:09;4.13;80.48
70336;SHT31;57756;47.408;18.940;2023-03-01T04:23:35;4.16;79.86
70336;SHT31;57756;47.408;18.940;2023-03-01T04:26:01;4.16;80.08
70336;SHT31;57756;47.408;18.940;2023-03-01T04:28:37;4.12;80.30
70336;SHT31;57756;47.408;18.940;2023-03-01T04:31:07;4.12;80.00
70336;SHT31;57756;47.408;18.940;2023-03-01T04:33:50;4.10;79.96
70336;SHT31;57756;47.408;18.940;2023-03-01T04:36:17;4.14;79.56
70336;SHT31;57756;47.408;18.940;2023-03-01T04:38:43;4.21;78.87
70336;SHT31;57756;47.408;18.940;2023-03-01T04:41:13;4.20;78.72
70336;SHT31;57756;47.408;18.940;2023-03-01T04:43:38;4.14;78.61
70336;SHT31;57756;47.408;18.940;2023-03-01T04:46:08;4.16;78.50
70336;SHT31;57756;47.408;18.940;2023-03-01T04:48:38;4.16;78.10
70336;SHT31;57756;47.408;18.940;2023-03-01T04:51:04;4.13;78.42
70336;SHT31;57756;47.408;18.940;2023-03-01T04:53:31;4.13;78.59
70336;SHT31;57756;47.408;18.940;2023-03-01T04:55:58;4.13;78.49
70336;SHT31;57756;47.408;18.940;2023-03-01T04:58:25;4.10;78.35
70336;SHT31;57756;47.408;18.940;2023-03-01T05:00:51;4.12;78.20
70336;SHT31;57756;47.408;18.940;2023-03-01T05:03:18;4.16;78.37
70336;SHT31;57756;47.408;18.940;2023-03-01T05:05:45;4.12;78.38
70336;SHT31;57756;47.408;18.940;2023-03-01T05:08:12;4.13;78.37
70336;SHT31;57756;47.408;18.940;2023-03-01T05:11:02;4.14;78.33
70336;SHT31;57756;47.408;18.940;2023-03-01T05:13:27;4.20;78.50
70336;SHT31;57756;47.408;18.940;2023-03-01T05:15:56;4.13;78.73
70336;SHT31;57756;47.408;18.940;2023-03-01T05:18:23;4.14;78.49
70336;SHT31;57756;47.408;18.940;2023-03-01T05:20:55;4.13;78.99
70336;SHT31;57756;47.408;18.940;2023-03-01T05:23:24;4.12;78.79
70336;SHT31;57756;47.408;18.940;2023-03-01T05:25:49;4.13;78.79
70336;SHT31;57756;47.408;18.940;2023-03-01T05:28:18;4.12;78.81
70336;SHT31;57756;47.408;18.940;2023-03-01T05:30:45;4.09;79.04
70336;SHT31;57756;47.408;18.940;2023-03-01T05:33:10;4.09;79.04
70336;SHT31;57756;47.408;18.940;2023-03-01T05:35:42;4.05;79.09
70336;SHT31;57756;47.408;18.940;2023-03-01T05:38:12;4.14;78.76
70336;SHT31;57756;47.408;18.940;2023-03-01T05:40:39;4.13;78.57
70336;SHT31;57756;47.408;18.940;2023-03-01T05:43:05;4.16;78.34
70336;SHT31;57756;47.408;18.940;2023-03-01T05:45:31;4.17;78.41
70336;SHT31;57756;47.408;18.940;2023-03-01T05:47:58;4.17;78.14
70336;SHT31;57756;47.408;18.940;2023-03-01T05:50:28;4.17;78.65
70336;SHT31;57756;47.408;18.940;2023-03-01T05:52:59;4.21;78.12
70336;SHT31;57756;47.408;18.940;2023-03-01T05:55:25;4.24;78.27
70336;SHT31;57756;47.408;18.940;2023-03-01T05:57:51;4.20;78.24
70336;SHT31;57756;47.408;18.940;2023-03-01T06:00:19;4.24;78.43
70336;SHT31;57756;47.408;18.940;2023-03-01T06:02:45;4.28;78.21
70336;SHT31;57756;47.408;18.940;2023-03-01T06:05:12;4.24;78.15
70336;SHT31;57756;47.408;18.940;2023-03-01T06:07:38;4.28;78.39
70336;SHT31;57756;47.408;18.940;2023-03-01T06:10:05;4.32;77.90
70336;SHT31;57756;47.408;18.940;2023-03-01T06:12:32;4.30;78.06
70336;SHT31;57756;47.408;18.940;2023-03-01T06:14:59;4.39;77.68
70336;SHT31;57756;47.408;18.940;2023-03-01T06:17:24;4.32;78.27
70336;SHT31;57756;47.408;18.940;2023-03-01T06:19:50;4.36;78.10
70336;SHT31;57756;47.408;18.940;2023-03-01T06:22:15;4.39;78.34
70336;SHT31;57756;47.408;18.940;2023-03-01T06:24:41;4.41;78.00
70336;SHT31;57756;47.408;18.940;2023-03-01T06:27:06;4.51;78.01
70336;SHT31;57756;47.408;18.940;2023-03-01T06:29:32;4.50;78.02
70336;SHT31;57756;47.408;18.940;2023-03-01T06:31:57;4.58;77.67
70336;SHT31;57756;47.408;18.940;2023-03-01T06:34:23;4.61;77.65
70336;SHT31;57756;47.408;18.940;2023-03-01T06:36:48;4.62;77.88
70336;SHT31;57756;47.408;18.940;2023-03-01T06:39:14;4.68;77.79
70336;SHT31;57756;47.408;18.940;2023-03-01T06:41:39;4.71;78.23
70336;SHT31;57756;47.408;18.940;2023-03-01T06:44:05;4.72;77.70
70336;SHT31;57756;47.408;18.940;2023-03-01T06:46:30;4.78;77.39
70336;SHT31;57756;47.408;18.940;2023-03-01T06:48:56;4.78;77.52
70336;SHT31;57756;47.408;18.940;2023-03-01T06:51:21;4.78;77.38
70336;SHT31;57756;47.408;18.940;2023-03-01T06:53:47;4.85;77.30
70336;SHT31;57756;47.408;18.940;2023-03-01T06:56:12;4.91;77.39
70336;SHT31;57756;47.408;18.940;2023-03-01T06:58:37;4.93;77.37
70336;SHT31;57756;47.408;18.940;2023-03-01T07:01:07;4.99;77.29
70336;SHT31;57756;47.408;18.940;2023-03-01T07:03:33;5.05;77.23
70336;SHT31;57756;47.408;18.940;2023-03-01T07:05:59;5.08;77.43
70336;SHT31;57756;47.408;18.940;2023-03-01T07:08:24;5.09;77.02
70336;SHT31;57756;47.408;18.940;2023-03-01T07:10:57;5.11;77.47
70336;SHT31;57756;47.408;18.940;2023-03-01T07:13:23;5.19;76.69
70336;SHT31;57756;47.408;18.940;2023-03-01T07:15:48;5.20;77.72
70336;SHT31;57756;47.408;18.940;2023-03-01T07:18:14;5.22;76.67
70336;SHT31;57756;47.408;18.940;2023-03-01T07:20:39;5.25;76.76
70336;SHT31;57756;47.408;18.940;2023-03-01T07:23:05;5.29;76.91
70336;SHT31;57756;47.408;18.940;2023-03-01T07:25:31;5.33;75.96
70336;SHT31;57756;47.408;18.940;2023-03-01T07:27:57;5.36;75.86
70336;SHT31;57756;47.408;18.940;2023-03-01T07:30:23;5.36;75.41
70336;SHT31;57756;47.408;18.940;2023-03-01T07:32:51;5.37;75.46
70336;SHT31;57756;47.408;18.940;2023-03-01T07:35:17;5.37;75.32
70336;SHT31;57756;47.408;18.940;2023-03-01T07:37:43;5.46;75.03
70336;SHT31;57756;47.408;18.940;2023-03-01T07:40:09;5.39;74.91
70336;SHT31;57756;47.408;18.940;2023-03-01T07:42:35;5.43;74.61
70336;SHT31;57756;47.408;18.940;2023-03-01T07:45:00;5.48;74.48
70336;SHT31;57756;47.408;18.940;2023-03-01T07:47:26;5.61;74.41
70336;SHT31;57756;47.408;18.940;2023-03-01T07:49:51;5.73;74.63
70336;SHT31;57756;47.408;18.940;2023-03-01T07:52:17;5.77;73.72
70336;SHT31;57756;47.408;18.940;2023-03-01T07:54:43;5.88;74.06
70336;SHT31;57756;47.408;18.940;2023-03-01T07:57:09;6.02;73.93
70336;SHT31;57756;47.408;18.940;2023-03-01T07:59:35;6.06;72.91
70336;SHT31;57756;47.408;18.940;2023-03-01T08:02:00;6.18;72.98
70336;SHT31;57756;47.408;18.940;2023-03-01T08:04:26;6.37;72.59
70336;SHT31;57756;47.408;18.940;2023-03-01T08:06:53;6.32;71.71
70336;SHT31;57756;47.408;18.940;2023-03-01T08:09:19;6.29;71.29
70336;SHT31;57756;47.408;18.940;2023-03-01T08:11:45;6.39;70.90
70336;SHT31;57756;47.408;18.940;2023-03-01T08:14:11;6.36;70.13
70336;SHT31;57756;47.408;18.940;2023-03-01T08:16:37;6.49;69.86
70336;SHT31;57756;47.408;18.940;2023-03-01T08:19:09;6.57;69.83
70336;SHT31;57756;47.408;18.940;2023-03-01T08:21:35;6.68;70.35
70336;SHT31;57756;47.408;18.940;2023-03-01T08:24:02;6.67;69.66
70336;SHT31;57756;47.408;18.940;2023-03-01T08:26:28;6.77;69.67
70336;SHT31;57756;47.408;18.940;2023-03-01T08:28:53;6.71;69.70
70336;SHT31;57756;47.408;18.940;2023-03-01T08:31:34;6.64;69.23
70336;SHT31;57756;47.408;18.940;2023-03-01T08:34:09;6.77;69.54
70336;SHT31;57756;47.408;18.940;2023-03-01T08:36:40;6.87;69.93
70336;SHT31;57756;47.408;18.940;2023-03-01T08:39:08;6.80;69.39
70336;SHT31;57756;47.408;18.940;2023-03-01T08:41:34;6.74;69.13
70336;SHT31;57756;47.408;18.940;2023-03-01T08:44:00;6.74;69.07
70336;SHT31;57756;47.408;18.940;2023-03-01T08:46:30;6.68;69.08
70336;SHT31;57756;47.408;18.940;2023-03-01T08:48:56;6.87;69.12
70336;SHT31;57756;47.408;18.940;2023-03-01T08:51:22;6.99;68.94
70336;SHT31;57756;47.408;18.940;2023-03-01T08:53:48;7.08;68.99
70336;SHT31;57756;47.408;18.940;2023-03-01T08:56:14;7.08;68.85
70336;SHT31;57756;47.408;18.940;2023-03-01T08:58:44;7.12;68.96
70336;SHT31;57756;47.408;18.940;2023-03-01T09:01:11;7.14;68.69
70336;SHT31;57756;47.408;18.940;2023-03-01T09:03:37;7.26;68.07
70336;SHT31;57756;47.408;18.940;2023-03-01T09:06:04;7.29;67.77
70336;SHT31;57756;47.408;18.940;2023-03-01T09:08:31;7.32;68.49
70336;SHT31;57756;47.408;18.940;2023-03-01T09:11:02;7.37;67.95
70336;SHT31;57756;47.408;18.940;2023-03-01T09:13:27;7.70;67.56
70336;SHT31;57756;47.408;18.940;2023-03-01T09:15:56;7.81;67.31
70336;SHT31;57756;47.408;18.940;2023-03-01T09:18:22;8.08;67.08
70336;SHT31;57756;47.408;18.940;2023-03-01T09:20:47;8.25;65.95
70336;SHT31;57756;47.408;18.940;2023-03-01T09:23:12;8.31;66.29
70336;SHT31;57756;47.408;18.940;2023-03-01T09:25:38;8.26;65.80
70336;SHT31;57756;47.408;18.940;2023-03-01T09:28:03;8.50;65.81
70336;SHT31;57756;47.408;18.940;2023-03-01T09:30:29;8.45;66.11
70336;SHT31;57756;47.408;18.940;2023-03-01T09:32:56;8.78;66.09
70336;SHT31;57756;47.408;18.940;2023-03-01T09:35:22;8.96;64.96
70336;SHT31;57756;47.408;18.940;2023-03-01T09:37:49;9.12;64.45
70336;SHT31;57756;47.408;18.940;2023-03-01T09:40:20;9.38;64.01
70336;SHT31;57756;47.408;18.940;2023-03-01T09:42:53;9.25;63.77
70336;SHT31;57756;47.408;18.940;2023-03-01T09:45:36;9.19;63.98
70336;SHT31;57756;47.408;18.940;2023-03-01T09:48:03;9.15;64.72
70336;SHT31;57756;47.408;18.940;2023-03-01T09:50:35;9.21;65.06
70336;SHT31;57756;47.408;18.940;2023-03-01T09:53:15;9.40;64.27
70336;SHT31;57756;47.408;18.940;2023-03-01T09:56:05;9.53;63.60
70336;SHT31;57756;47.408;18.940;2023-03-01T10:01:38;10.31;62.73
70336;SHT31;57756;47.408;18.940;2023-03-01T10:04:42;10.10;61.60
70336;SHT31;57756;47.408;18.940;2023-03-01T10:09:40;10.12;61.90
70336;SHT31;57756;47.408;18.940;2023-03-01T10:12:29;10.58;60.98
70336;SHT31;57756;47.408;18.940;2023-03-01T10:20:11;10.99;59.58
70336;SHT31;57756;47.408;18.940;2023-03-01T10:22:39;10.93;60.03
70336;SHT31;57756;47.408;18.940;2023-03-01T10:25:05;11.17;60.20
70336;SHT31;57756;47.408;18.940;2023-03-01T10:27:40;11.20;60.27
70336;SHT31;57756;47.408;18.940;2023-03-01T10:30:16;11.45;60.26
70336;SHT31;57756;47.408;18.940;2023-03-01T10:32:43;11.46;59.33
70336;SHT31;57756;47.408;18.940;2023-03-01T10:38:08;11.44;58.60
70336;SHT31;57756;47.408;18.940;2023-03-01T10:40:36;11.46;59.52
70336;SHT31;57756;47.408;18.940;2023-03-01T10:43:04;11.36;59.15
70336;SHT31;57756;47.408;18.940;2023-03-01T10:51:06;12.03;59.49
70336;SHT31;57756;47.408;18.940;2023-03-01T10:53:36;11.86;58.86
70336;SHT31;57756;47.408;18.940;2023-03-01T10:56:06;11.65;59.11
70336;SHT31;57756;47.408;18.940;2023-03-01T10:58:33;11.75;59.04
70336;SHT31;57756;47.408;18.940;2023-03-01T11:01:03;11.79;59.43
70336;SHT31;57756;47.408;18.940;2023-03-01T11:03:35;11.83;57.64
70336;SHT31;57756;47.408;18.940;2023-03-01T11:06:03;11.89;58.27
70336;SHT31;57756;47.408;18.940;2023-03-01T11:08:43;12.44;58.97
70336;SHT31;57756;47.408;18.940;2023-03-01T11:13:34;12.29;56.37
70336;SHT31;57756;47.408;18.940;2023-03-01T11:16:06;12.17;56.68
70336;SHT31;57756;47.408;18.940;2023-03-01T11:18:34;12.07;58.05
70336;SHT31;57756;47.408;18.940;2023-03-01T11:21:01;11.72;58.34
70336;SHT31;57756;47.408;18.940;2023-03-01T11:23:28;11.92;58.67
70336;SHT31;57756;47.408;18.940;2023-03-01T11:26:01;11.94;58.28
70336;SHT31;57756;47.408;18.940;2023-03-01T11:28:29;12.40;58.46
70336;SHT31;57756;47.408;18.940;2023-03-01T11:31:09;12.21;57.42
70336;SHT31;57756;47.408;18.940;2023-03-01T11:36:31;12.34;57.24
70336;SHT31;57756;47.408;18.940;2023-03-01T11:39:05;12.57;57.02
70336;SHT31;57756;47.408;18.940;2023-03-01T11:41:39;12.76;55.87
70336;SHT31;57756;47.408;18.940;2023-03-01T11:44:20;12.65;57.47
70336;SHT31;57756;47.408;18.940;2023-03-01T11:52:36;12.44;57.67
70336;SHT31;57756;47.408;18.940;2023-03-01T12:03:16;12.13;56.99
70336;SHT31;57756;47.408;18.940;2023-03-01T12:06:08;12.03;58.21
70336;SHT31;57756;47.408;18.940;2023-03-01T12:15:04;12.59;56.67
70336;SHT31;57756;47.408;18.940;2023-03-01T12:20:37;12.67;55.77
70336;SHT31;57756;47.408;18.940;2023-03-01T12:23:15;12.33;56.59
70336;SHT31;57756;47.408;18.940;2023-03-01T12:28:51;12.26;57.02
70336;SHT31;57756;47.408;18.940;2023-03-01T12:34:03;12.47;56.91
70336;SHT31;57756;47.408;18.940;2023-03-01T12:36:40;12.55;56.85
70336;SHT31;57756;47.408;18.940;2023-03-01T12:45:41;12.04;57.61
70336;SHT31;57756;47.408;18.940;2023-03-01T12:48:35;12.09;58.43
70336;SHT31;57756;47.408;18.940;2023-03-01T12:51:06;12.06;58.98
70336;SHT31;57756;47.408;18.940;2023-03-01T12:53:39;12.04;58.17
70336;SHT31;57756;47.408;18.940;2023-03-01T12:56:07;12.03;58.39
70336;SHT31;57756;47.408;18.940;2023-03-01T13:01:57;12.20;58.91
70336;SHT31;57756;47.408;18.940;2023-03-01T13:04:52;12.23;58.20
70336;SHT31;57756;47.408;18.940;2023-03-01T13:07:29;12.42;58.76
70336;SHT31;57756;47.408;18.940;2023-03-01T13:23:12;11.75;59.63
70336;SHT31;57756;47.408;18.940;2023-03-01T13:26:12;11.90;60.71
70336;SHT31;57756;47.408;18.940;2023-03-01T13:36:45;11.66;61.00
70336;SHT31;57756;47.408;18.940;2023-03-01T13:39:00;11.65;61.04
70336;SHT31;57756;47.408;18.940;2023-03-01T13:44:32;11.57;60.31
70336;SHT31;57756;47.408;18.940;2023-03-01T13:46:59;11.54;60.95
70336;SHT31;57756;47.408;18.940;2023-03-01T13:49:30;11.66;60.42
70336;SHT31;57756;47.408;18.940;2023-03-01T13:51:57;11.48;60.73
70336;SHT31;57756;47.408;18.940;2023-03-01T13:54:28;11.51;60.56
70336;SHT31;57756;47.408;18.940;2023-03-01T13:56:55;11.54;60.52
70336;SHT31;57756;47.408;18.940;2023-03-01T13:59:21;11.45;60.78
70336;SHT31;57756;47.408;18.940;2023-03-01T14:01:58;11.48;61.07
70336;SHT31;57756;47.408;18.940;2023-03-01T14:04:31;11.57;60.35
70336;SHT31;57756;47.408;18.940;2023-03-01T14:07:20;11.54;60.22
70336;SHT31;57756;47.408;18.940;2023-03-01T14:09:48;11.50;60.56
70336;SHT31;57756;47.408;18.940;2023-03-01T14:12:27;11.42;61.25
70336;SHT31;57756;47.408;18.940;2023-03-01T14:20:25;11.32;61.04
70336;SHT31;57756;47.408;18.940;2023-03-01T14:22:59;11.30;62.19
70336;SHT31;57756;47.408;18.940;2023-03-01T14:25:35;11.31;61.57
70336;SHT31;57756;47.408;18.940;2023-03-01T14:28:17;11.32;61.29
70336;SHT31;57756;47.408;18.940;2023-03-01T14:30:45;11.57;60.57
70336;SHT31;57756;47.408;18.940;2023-03-01T14:38:45;11.21;61.48
70336;SHT31;57756;47.408;18.940;2023-03-01T14:41:16;11.25;60.89
70336;SHT31;57756;47.408;18.940;2023-03-01T14:43:45;11.28;60.72
70336;SHT31;57756;47.408;18.940;2023-03-01T14:46:33;11.20;62.13
70336;SHT31;57756;47.408;18.940;2023-03-01T14:51:38;11.11;61.47
70336;SHT31;57756;47.408;18.940;2023-03-01T14:54:20;11.20;61.52
70336;SHT31;57756;47.408;18.940;2023-03-01T14:56:47;11.16;61.76
70336;SHT31;57756;47.408;18.940;2023-03-01T14:59:13;11.20;60.81
70336;SHT31;57756;47.408;18.940;2023-03-01T15:01:40;11.01;63.01
70336;SHT31;57756;47.408;18.940;2023-03-01T15:04:11;10.96;63.74
70336;SHT31;57756;47.408;18.940;2023-03-01T15:06:37;10.92;62.00
70336;SHT31;57756;47.408;18.940;2023-03-01T15:09:03;11.06;61.78
70336;SHT31;57756;47.408;18.940;2023-03-01T15:11:31;11.08;61.78
70336;SHT31;57756;47.408;18.940;2023-03-01T15:13:57;11.00;62.35
70336;SHT31;57756;47.408;18.940;2023-03-01T15:16:33;11.03;62.20
70336;SHT31;57756;47.408;18.940;2023-03-01T15:19:06;11.00;61.75
70336;SHT31;57756;47.408;18.940;2023-03-01T15:21:37;10.90;61.73
70336;SHT31;57756;47.408;18.940;2023-03-01T15:24:17;10.90;61.84
70336;SHT31;57756;47.408;18.940;2023-03-01T15:26:57;10.84;62.33
70336;SHT31;57756;47.408;18.940;2023-03-01T15:29:29;10.81;63.01
70336;SHT31;57756;47.408;18.940;2023-03-01T15:32:31;10.77;63.30
70336;SHT31;57756;47.408;18.940;2023-03-01T15:34:59;10.66;63.08
70336;SHT31;57756;47.408;18.940;2023-03-01T15:37:46;10.60;63.32
70336;SHT31;57756;47.408;18.940;2023-03-01T15:40:21;10.55;63.82
70336;SHT31;57756;47.408;18.940;2023-03-01T15:42:49;10.50;64.00
70336;SHT31;57756;47.408;18.940;2023-03-01T15:47:47;10.31;64.47
70336;SHT31;57756;47.408;18.940;2023-03-01T15:50:30;10.42;63.71
70336;SHT31;57756;47.408;18.940;2023-03-01T15:52:58;10.38;64.22
70336;SHT31;57756;47.408;18.940;2023-03-01T15:55:27;10.34;64.37
70336;SHT31;57756;47.408;18.940;2023-03-01T16:00:28;10.17;64.86
70336;SHT31;57756;47.408;18.940;2023-03-01T16:02:54;10.04;65.34
70336;SHT31;57756;47.408;18.940;2023-03-01T16:05:26;10.01;65.19
70336;SHT31;57756;47.408;18.940;2023-03-01T16:07:52;9.93;65.54
70336;SHT31;57756;47.408;18.940;2023-03-01T16:10:18;9.80;66.32
70336;SHT31;57756;47.408;18.940;2023-03-01T16:12:44;9.64;66.88
70336;SHT31;57756;47.408;18.940;2023-03-01T16:15:27;9.57;66.77
70336;SHT31;57756;47.408;18.940;2023-03-01T16:17:53;9.40;68.62
70336;SHT31;57756;47.408;18.940;2023-03-01T16:20:19;9.24;69.76
70336;SHT31;57756;47.408;18.940;2023-03-01T16:22:45;8.97;70.73
70336;SHT31;57756;47.408;18.940;2023-03-01T16:25:16;8.78;71.87
70336;SHT31;57756;47.408;18.940;2023-03-01T16:27:43;8.63;72.52
70336;SHT31;57756;47.408;18.940;2023-03-01T16:30:10;8.53;72.85
70336;SHT31;57756;47.408;18.940;2023-03-01T16:32:40;8.39;73.03
70336;SHT31;57756;47.408;18.940;2023-03-01T16:35:06;8.21;73.47
70336;SHT31;57756;47.408;18.940;2023-03-01T16:37:34;8.08;74.26
70336;SHT31;57756;47.408;18.940;2023-03-01T16:39:59;7.90;73.99
70336;SHT31;57756;47.408;18.940;2023-03-01T16:42:25;7.77;73.99
70336;SHT31;57756;47.408;18.940;2023-03-01T16:44:55;7.69;74.17
70336;SHT31;57756;47.408;18.940;2023-03-01T16:47:21;7.53;74.42
70336;SHT31;57756;47.408;18.940;2023-03-01T16:49:47;7.47;74.54
70336;SHT31;57756;47.408;18.940;2023-03-01T16:52:12;7.39;75.20
70336;SHT31;57756;47.408;18.940;2023-03-01T16:54:38;7.29;75.39
70336;SHT31;57756;47.408;18.940;2023-03-01T16:57:03;7.27;75.31
70336;SHT31;57756;47.408;18.940;2023-03-01T16:59:30;7.15;75.74
70336;SHT31;57756;47.408;18.940;2023-03-01T17:01:55;6.98;75.93
70336;SHT31;57756;47.408;18.940;2023-03-01T17:04:20;6.92;76.07
70336;SHT31;57756;47.408;18.940;2023-03-01T17:06:46;6.84;76.40
70336;SHT31;57756;47.408;18.940;2023-03-01T17:09:13;6.74;76.84
70336;SHT31;57756;47.408;18.940;2023-03-01T17:11:39;6.70;77.26
70336;SHT31;57756;47.408;18.940;2023-03-01T17:14:04;6.67;77.28
70336;SHT31;57756;47.408;18.940;2023-03-01T17:16:30;6.58;77.39
70336;SHT31;57756;47.408;18.940;2023-03-01T17:18:55;6.53;77.53
70336;SHT31;57756;47.408;18.940;2023-03-01T17:21:21;6.41;77.91
70336;SHT31;57756;47.408;18.940;2023-03-01T17:23:46;6.37;78.02
70336;SHT31;57756;47.408;18.940;2023-03-01T17:26:14;6.29;78.85
70336;SHT31;57756;47.408;18.940;2023-03-01T17:28:40;6.22;79.02
70336;SHT31;57756;47.408;18.940;2023-03-01T17:31:08;6.18;78.99
70336;SHT31;57756;47.408;18.940;2023-03-01T17:33:34;6.13;79.02
70336;SHT31;57756;47.408;18.940;2023-03-01T17:35:59;6.09;78.68